Impacts TAF Board INFO
FOR SITUATIONAL AWARENESS. NOT TO BE USED FOR FLIGHT PLANNING PURPOSES.
IDs:

KDEN - Denver Intl, CO, US

Issued at 2320 UTC 12 Dec 2017
Updated at 2335 UTC 12 Dec 2017
Potential Impact None Slight Moderate High
Time<<13/12Z 13/13Z 13/14Z 13/15Z 13/16Z 13/17Z 13/18Z 13/19Z 13/20Z 13/21Z 13/22Z 13/23Z 14/00Z>>
Type PRVL PRVL PRVL PRVL PRVL PRVL PRVL PRVL PRVL PRVL PRVL PRVL PRVL
VIS >6 >6 >6 >6 >6 >6 >6 >6 >6 >6 >6 >6 >6
CIG -- -- -- -- -- -- -- 120 120 120 120 120 80
Cover SCT SCT SCT SCT SCT SCT SCT BKN BKN BKN BKN BKN BKN
FltCat VFR VFR VFR VFR VFR VFR VFR VFR VFR VFR VFR VFR VFR
WX -- -- -- -- -- -- -- -- -- -- -- -- VCSH
WDir 220 220 220 220 220 340 340 40 40 40 40 40 60
WSpd 10 10 10 10 10 6 6 12 12 12 12 12 8
WGst -- -- -- -- -- -- -- -- -- -- -- -- --

Raw TAF
KDEN 122320Z 1300/1406 06004KT P6SM SCT250
  FM130100 17008KT P6SM FEW250
  FM130300 22010KT P6SM SCT220
  FM131700 34006KT P6SM SCT200
  FM131900 04012KT P6SM SCT080 BKN120
  FM140000 06008KT P6SM VCSH SCT050 BKN080
  PROB30 1403/1406 -SHRASN BKN050


METAR Board
Radar Display
Forecast Discussion

FOR SITUATIONAL AWARENESS. NOT TO BE USED FOR FLIGHT PLANNING PURPOSES.